KASN

Talladega Municipal Airport

Talladega, Alabama, USA
METAR KASN 211415Z AUTO 03014G18KT 10SM CLR 08/M01 A3031 RMK AO2 T00811015
Observed Flight Rules
Oct-21 @ 14:15 UTC (24 minutes ago) Visual Flight Rules
Wind Visibility Clouds
30° at 14 knots
 Gusting to 18 knots
10 miles
  • Clear skies
Temperatures Readings
Current 8°C / 46°F
Dewpoint -2°C / 28°F
Humidity 50%
Altimeter 30.31" Hg
Pressure 1026 hPa
Elevation 162
METAR KASN 211415Z AUTO 03014G18KT 10SM CLR 08/M01 A3031 RMK AO2 T00811015
Observed Flight Rules
Oct-21 @ 14:15 UTC
(24 minutes ago)
VFR
Wind Visibility
30° at 14 knots
 Gusting to 18 knots
10 miles
Clouds
  • Clear skies
Temperature Dewpoint
8°C / 46°F -2°C / 28°F
Humidity Altimeter Pressure
50% 30.31" Hg 1026 hPa